sensor_id;sensor_type;location;lat;lon;timestamp;temperature;humidity
32334;DHT22;18810;53.040;8.850;2022-09-29T00:00:25;8.40;99.90
32334;DHT22;18810;53.040;8.850;2022-09-29T00:02:52;8.40;99.90
32334;DHT22;18810;53.040;8.850;2022-09-29T00:10:10;8.30;99.90
32334;DHT22;18810;53.040;8.850;2022-09-29T00:12:36;9.00;99.90
32334;DHT22;18810;53.040;8.850;2022-09-29T00:15:02;10.00;99.90
32334;DHT22;18810;53.040;8.850;2022-09-29T00:17:27;8.10;99.90
32334;DHT22;18810;53.040;8.850;2022-09-29T00:19:53;8.10;99.90
32334;DHT22;18810;53.040;8.850;2022-09-29T00:22:18;9.90;99.90
32334;DHT22;18810;53.040;8.850;2022-09-29T00:24:46;10.50;99.90
32334;DHT22;18810;53.040;8.850;2022-09-29T00:27:44;7.70;99.90
32334;DHT22;18810;53.040;8.850;2022-09-29T00:30:11;8.00;99.90
32334;DHT22;18810;53.040;8.850;2022-09-29T00:32:36;7.90;99.90
32334;DHT22;18810;53.040;8.850;2022-09-29T00:35:02;7.90;99.90
32334;DHT22;18810;53.040;8.850;2022-09-29T00:37:27;7.80;99.90
32334;DHT22;18810;53.040;8.850;2022-09-29T00:39:53;7.80;99.90
32334;DHT22;18810;53.040;8.850;2022-09-29T00:42:19;7.70;99.90
32334;DHT22;18810;53.040;8.850;2022-09-29T00:45:05;10.00;99.90
32334;DHT22;18810;53.040;8.850;2022-09-29T00:47:37;7.70;99.90
32334;DHT22;18810;53.040;8.850;2022-09-29T00:52:47;7.70;99.90
32334;DHT22;18810;53.040;8.850;2022-09-29T00:55:30;7.60;99.90
32334;DHT22;18810;53.040;8.850;2022-09-29T01:00:48;7.50;99.90
32334;DHT22;18810;53.040;8.850;2022-09-29T01:03:16;7.40;99.90
32334;DHT22;18810;53.040;8.850;2022-09-29T01:06:05;7.70;99.90
32334;DHT22;18810;53.040;8.850;2022-09-29T01:09:08;7.40;99.90
32334;DHT22;18810;53.040;8.850;2022-09-29T01:11:35;7.40;99.90
32334;DHT22;18810;53.040;8.850;2022-09-29T01:14:03;8.10;99.90
32334;DHT22;18810;53.040;8.850;2022-09-29T01:16:31;9.40;99.90
32334;DHT22;18810;53.040;8.850;2022-09-29T01:18:58;7.30;99.90
32334;DHT22;18810;53.040;8.850;2022-09-29T01:21:49;7.10;99.90
32334;DHT22;18810;53.040;8.850;2022-09-29T01:33:26;7.20;99.90
32334;DHT22;18810;53.040;8.850;2022-09-29T01:41:43;7.00;99.90
32334;DHT22;18810;53.040;8.850;2022-09-29T01:44:36;7.00;99.90
32334;DHT22;18810;53.040;8.850;2022-09-29T01:47:15;7.00;99.90
32334;DHT22;18810;53.040;8.850;2022-09-29T01:49:51;7.00;99.90
32334;DHT22;18810;53.040;8.850;2022-09-29T01:52:21;7.00;99.90
32334;DHT22;18810;53.040;8.850;2022-09-29T01:57:55;7.00;99.90
32334;DHT22;18810;53.040;8.850;2022-09-29T02:00:22;7.10;99.90
32334;DHT22;18810;53.040;8.850;2022-09-29T02:05:33;7.00;99.90
32334;DHT22;18810;53.040;8.850;2022-09-29T02:08:06;6.90;99.90
32334;DHT22;18810;53.040;8.850;2022-09-29T02:10:38;6.90;99.90
32334;DHT22;18810;53.040;8.850;2022-09-29T02:13:07;8.80;99.90
32334;DHT22;18810;53.040;8.850;2022-09-29T02:15:37;6.70;99.90
32334;DHT22;18810;53.040;8.850;2022-09-29T02:18:12;6.80;99.90
32334;DHT22;18810;53.040;8.850;2022-09-29T02:20:41;6.80;99.90
32334;DHT22;18810;53.040;8.850;2022-09-29T02:23:06;7.00;99.90
32334;DHT22;18810;53.040;8.850;2022-09-29T02:25:36;6.80;99.90
32334;DHT22;18810;53.040;8.850;2022-09-29T02:28:09;6.70;99.90
32334;DHT22;18810;53.040;8.850;2022-09-29T02:33:01;6.80;99.90
32334;DHT22;18810;53.040;8.850;2022-09-29T02:36:35;9.30;99.90
32334;DHT22;18810;53.040;8.850;2022-09-29T02:50:18;6.60;99.90
32334;DHT22;18810;53.040;8.850;2022-09-29T02:52:54;6.70;99.90
32334;DHT22;18810;53.040;8.850;2022-09-29T02:55:41;6.60;99.90
32334;DHT22;18810;53.040;8.850;2022-09-29T02:58:25;6.60;99.90
32334;DHT22;18810;53.040;8.850;2022-09-29T03:00:52;6.60;99.90
32334;DHT22;18810;53.040;8.850;2022-09-29T03:03:18;6.70;99.90
32334;DHT22;18810;53.040;8.850;2022-09-29T03:05:44;9.00;99.90
32334;DHT22;18810;53.040;8.850;2022-09-29T03:08:10;6.50;99.90
32334;DHT22;18810;53.040;8.850;2022-09-29T03:10:35;6.50;99.90
32334;DHT22;18810;53.040;8.850;2022-09-29T03:13:01;6.60;99.90
32334;DHT22;18810;53.040;8.850;2022-09-29T03:15:27;6.40;99.90
32334;DHT22;18810;53.040;8.850;2022-09-29T03:17:55;6.40;99.90
32334;DHT22;18810;53.040;8.850;2022-09-29T03:22:47;6.50;99.90
32334;DHT22;18810;53.040;8.850;2022-09-29T03:25:13;6.50;99.90
32334;DHT22;18810;53.040;8.850;2022-09-29T03:27:58;6.50;99.90
32334;DHT22;18810;53.040;8.850;2022-09-29T03:30:23;6.50;99.90
32334;DHT22;18810;53.040;8.850;2022-09-29T03:32:49;6.50;99.90
32334;DHT22;18810;53.040;8.850;2022-09-29T03:35:15;6.50;99.90
32334;DHT22;18810;53.040;8.850;2022-09-29T03:37:41;6.30;99.90
32334;DHT22;18810;53.040;8.850;2022-09-29T03:40:07;6.30;99.90
32334;DHT22;18810;53.040;8.850;2022-09-29T04:04:27;6.30;99.90
32334;DHT22;18810;53.040;8.850;2022-09-29T04:06:53;6.70;99.90
32334;DHT22;18810;53.040;8.850;2022-09-29T04:11:44;6.30;99.90
32334;DHT22;18810;53.040;8.850;2022-09-29T04:14:10;7.90;99.90
32334;DHT22;18810;53.040;8.850;2022-09-29T04:19:01;6.40;99.90
32334;DHT22;18810;53.040;8.850;2022-09-29T04:21:27;6.30;99.90
32334;DHT22;18810;53.040;8.850;2022-09-29T04:23:52;6.30;99.90
32334;DHT22;18810;53.040;8.850;2022-09-29T04:26:18;6.30;99.90
32334;DHT22;18810;53.040;8.850;2022-09-29T04:28:52;6.30;99.90
32334;DHT22;18810;53.040;8.850;2022-09-29T04:31:17;6.30;99.90
32334;DHT22;18810;53.040;8.850;2022-09-29T04:33:43;6.10;99.90
32334;DHT22;18810;53.040;8.850;2022-09-29T04:46:00;6.10;99.90
32334;DHT22;18810;53.040;8.850;2022-09-29T04:50:52;6.10;99.90
32334;DHT22;18810;53.040;8.850;2022-09-29T04:55:45;6.10;99.90
32334;DHT22;18810;53.040;8.850;2022-09-29T05:07:54;6.10;99.90
32334;DHT22;18810;53.040;8.850;2022-09-29T05:10:20;6.00;99.90
32334;DHT22;18810;53.040;8.850;2022-09-29T05:12:50;6.10;99.90
32334;DHT22;18810;53.040;8.850;2022-09-29T05:15:17;5.90;99.90
32334;DHT22;18810;53.040;8.850;2022-09-29T05:17:43;6.00;99.90
32334;DHT22;18810;53.040;8.850;2022-09-29T05:20:10;6.00;99.90
32334;DHT22;18810;53.040;8.850;2022-09-29T05:25:02;6.00;99.90
32334;DHT22;18810;53.040;8.850;2022-09-29T05:28:03;6.00;99.90
32334;DHT22;18810;53.040;8.850;2022-09-29T05:30:29;6.00;99.90
32334;DHT22;18810;53.040;8.850;2022-09-29T05:32:55;6.00;99.90
32334;DHT22;18810;53.040;8.850;2022-09-29T05:35:20;6.00;99.90
32334;DHT22;18810;53.040;8.850;2022-09-29T05:45:07;6.00;99.90
32334;DHT22;18810;53.040;8.850;2022-09-29T05:57:19;6.20;99.90
32334;DHT22;18810;53.040;8.850;2022-09-29T06:02:11;6.20;99.90
32334;DHT22;18810;53.040;8.850;2022-09-29T06:07:03;6.30;99.90
32334;DHT22;18810;53.040;8.850;2022-09-29T06:09:29;6.60;99.90
32334;DHT22;18810;53.040;8.850;2022-09-29T06:11:54;6.50;99.90
32334;DHT22;18810;53.040;8.850;2022-09-29T06:14:20;6.70;99.90
32334;DHT22;18810;53.040;8.850;2022-09-29T06:19:11;7.20;99.90
32334;DHT22;18810;53.040;8.850;2022-09-29T06:31:26;8.00;99.90
32334;DHT22;18810;53.040;8.850;2022-09-29T06:33:52;8.00;99.90
32334;DHT22;18810;53.040;8.850;2022-09-29T06:36:22;9.40;99.90
32334;DHT22;18810;53.040;8.850;2022-09-29T06:39:08;8.40;99.90
32334;DHT22;18810;53.040;8.850;2022-09-29T06:41:34;8.20;99.90
32334;DHT22;18810;53.040;8.850;2022-09-29T06:44:00;8.50;99.90
32334;DHT22;18810;53.040;8.850;2022-09-29T06:46:26;8.70;99.90
32334;DHT22;18810;53.040;8.850;2022-09-29T06:48:53;10.10;99.90
32334;DHT22;18810;53.040;8.850;2022-09-29T06:51:19;11.10;99.90
32334;DHT22;18810;53.040;8.850;2022-09-29T06:53:47;9.30;99.90
32334;DHT22;18810;53.040;8.850;2022-09-29T06:58:38;8.70;99.90
32334;DHT22;18810;53.040;8.850;2022-09-29T07:03:31;9.00;99.90
32334;DHT22;18810;53.040;8.850;2022-09-29T07:06:05;9.30;99.90
32334;DHT22;18810;53.040;8.850;2022-09-29T07:08:31;9.30;99.90
32334;DHT22;18810;53.040;8.850;2022-09-29T07:10:59;9.70;99.90
32334;DHT22;18810;53.040;8.850;2022-09-29T07:13:25;9.70;99.90
32334;DHT22;18810;53.040;8.850;2022-09-29T07:18:18;9.90;99.90
32334;DHT22;18810;53.040;8.850;2022-09-29T07:20:44;9.80;99.90
32334;DHT22;18810;53.040;8.850;2022-09-29T07:23:09;9.60;99.90
32334;DHT22;18810;53.040;8.850;2022-09-29T07:25:35;10.10;99.90
32334;DHT22;18810;53.040;8.850;2022-09-29T07:28:01;11.20;99.90
32334;DHT22;18810;53.040;8.850;2022-09-29T07:30:26;10.70;99.90
32334;DHT22;18810;53.040;8.850;2022-09-29T07:32:53;12.40;99.90
32334;DHT22;18810;53.040;8.850;2022-09-29T07:35:20;11.90;99.90
32334;DHT22;18810;53.040;8.850;2022-09-29T07:37:55;11.20;99.90
32334;DHT22;18810;53.040;8.850;2022-09-29T07:40:22;11.40;99.90
32334;DHT22;18810;53.040;8.850;2022-09-29T07:45:16;11.60;99.90
32334;DHT22;18810;53.040;8.850;2022-09-29T07:50:08;11.70;99.90
32334;DHT22;18810;53.040;8.850;2022-09-29T07:52:34;11.50;99.90
32334;DHT22;18810;53.040;8.850;2022-09-29T07:55:00;11.90;99.90
32334;DHT22;18810;53.040;8.850;2022-09-29T07:57:25;12.40;99.90
32334;DHT22;18810;53.040;8.850;2022-09-29T07:59:51;12.20;99.90
32334;DHT22;18810;53.040;8.850;2022-09-29T08:02:19;13.90;99.90
32334;DHT22;18810;53.040;8.850;2022-09-29T08:04:45;12.50;99.90
32334;DHT22;18810;53.040;8.850;2022-09-29T08:07:10;12.20;99.90
32334;DHT22;18810;53.040;8.850;2022-09-29T08:09:36;13.20;99.90
32334;DHT22;18810;53.040;8.850;2022-09-29T08:12:02;12.40;99.90
32334;DHT22;18810;53.040;8.850;2022-09-29T08:16:53;12.20;99.90
32334;DHT22;18810;53.040;8.850;2022-09-29T08:19:19;14.40;99.90
32334;DHT22;18810;53.040;8.850;2022-09-29T08:21:45;12.60;99.90
32334;DHT22;18810;53.040;8.850;2022-09-29T08:24:14;12.90;99.90
32334;DHT22;18810;53.040;8.850;2022-09-29T08:26:40;13.00;99.90
32334;DHT22;18810;53.040;8.850;2022-09-29T08:29:06;13.90;99.90
32334;DHT22;18810;53.040;8.850;2022-09-29T08:31:31;13.90;99.90
32334;DHT22;18810;53.040;8.850;2022-09-29T08:33:58;14.10;99.90
32334;DHT22;18810;53.040;8.850;2022-09-29T08:36:24;14.10;99.90
32334;DHT22;18810;53.040;8.850;2022-09-29T08:38:53;14.40;99.90
32334;DHT22;18810;53.040;8.850;2022-09-29T08:44:09;14.70;99.90
32334;DHT22;18810;53.040;8.850;2022-09-29T08:46:41;14.40;99.90
32334;DHT22;18810;53.040;8.850;2022-09-29T08:49:25;14.40;99.90
32334;DHT22;18810;53.040;8.850;2022-09-29T08:51:56;14.40;99.90
32334;DHT22;18810;53.040;8.850;2022-09-29T08:54:29;14.40;99.90
32334;DHT22;18810;53.040;8.850;2022-09-29T08:56:56;14.30;99.90
32334;DHT22;18810;53.040;8.850;2022-09-29T08:59:22;14.70;99.90
32334;DHT22;18810;53.040;8.850;2022-09-29T09:02:22;14.90;99.90
32334;DHT22;18810;53.040;8.850;2022-09-29T09:05:11;15.10;99.90
32334;DHT22;18810;53.040;8.850;2022-09-29T09:10:34;16.30;99.90
32334;DHT22;18810;53.040;8.850;2022-09-29T09:13:32;16.80;99.90
32334;DHT22;18810;53.040;8.850;2022-09-29T09:16:36;17.70;99.90
32334;DHT22;18810;53.040;8.850;2022-09-29T09:19:26;18.30;99.90
32334;DHT22;18810;53.040;8.850;2022-09-29T09:22:15;18.20;99.90
32334;DHT22;18810;53.040;8.850;2022-09-29T09:24:50;17.80;99.90
32334;DHT22;18810;53.040;8.850;2022-09-29T09:27:37;17.60;99.90
32334;DHT22;18810;53.040;8.850;2022-09-29T09:30:12;18.00;99.90
32334;DHT22;18810;53.040;8.850;2022-09-29T09:32:48;18.70;99.90
32334;DHT22;18810;53.040;8.850;2022-09-29T09:35:38;18.70;99.90
32334;DHT22;18810;53.040;8.850;2022-09-29T09:38:22;19.00;99.90
32334;DHT22;18810;53.040;8.850;2022-09-29T09:40:52;19.40;99.90
32334;DHT22;18810;53.040;8.850;2022-09-29T09:48:49;17.70;99.90
32334;DHT22;18810;53.040;8.850;2022-09-29T09:54:26;16.90;99.90
32334;DHT22;18810;53.040;8.850;2022-09-29T10:02:22;17.60;99.90
32334;DHT22;18810;53.040;8.850;2022-09-29T10:04:50;17.90;99.90
32334;DHT22;18810;53.040;8.850;2022-09-29T10:07:24;17.60;99.90
32334;DHT22;18810;53.040;8.850;2022-09-29T10:09:52;17.60;99.90
32334;DHT22;18810;53.040;8.850;2022-09-29T10:12:20;17.80;99.90
32334;DHT22;18810;53.040;8.850;2022-09-29T10:18:27;19.00;99.90
32334;DHT22;18810;53.040;8.850;2022-09-29T10:20:53;19.70;99.90
32334;DHT22;18810;53.040;8.850;2022-09-29T10:23:35;20.20;99.90
32334;DHT22;18810;53.040;8.850;2022-09-29T10:31:33;19.10;99.90
32334;DHT22;18810;53.040;8.850;2022-09-29T10:39:40;18.60;99.90
32334;DHT22;18810;53.040;8.850;2022-09-29T10:42:21;18.90;99.90
32334;DHT22;18810;53.040;8.850;2022-09-29T10:45:00;19.80;99.90
32334;DHT22;18810;53.040;8.850;2022-09-29T10:47:27;20.80;99.90
32334;DHT22;18810;53.040;8.850;2022-09-29T10:52:42;20.40;98.90
32334;DHT22;18810;53.040;8.850;2022-09-29T10:55:22;20.30;99.00
32334;DHT22;18810;53.040;8.850;2022-09-29T10:57:48;20.60;98.90
32334;DHT22;18810;53.040;8.850;2022-09-29T11:00:38;21.00;98.30
32334;DHT22;18810;53.040;8.850;2022-09-29T11:03:24;21.10;97.70
32334;DHT22;18810;53.040;8.850;2022-09-29T11:05:55;21.40;96.80
32334;DHT22;18810;53.040;8.850;2022-09-29T11:08:23;21.70;97.20
32334;DHT22;18810;53.040;8.850;2022-09-29T11:11:18;21.90;96.90
32334;DHT22;18810;53.040;8.850;2022-09-29T11:13:45;21.90;97.20
32334;DHT22;18810;53.040;8.850;2022-09-29T11:16:14;22.40;95.70
32334;DHT22;18810;53.040;8.850;2022-09-29T11:18:41;21.90;94.90
32334;DHT22;18810;53.040;8.850;2022-09-29T11:30:09;19.50;98.80
32334;DHT22;18810;53.040;8.850;2022-09-29T11:38:40;19.90;98.60
32334;DHT22;18810;53.040;8.850;2022-09-29T11:43:55;19.70;99.00
32334;DHT22;18810;53.040;8.850;2022-09-29T11:49:50;20.90;96.30
32334;DHT22;18810;53.040;8.850;2022-09-29T11:53:22;20.80;96.20
32334;DHT22;18810;53.040;8.850;2022-09-29T11:55:58;21.00;96.10
32334;DHT22;18810;53.040;8.850;2022-09-29T12:01:33;21.10;95.60
32334;DHT22;18810;53.040;8.850;2022-09-29T12:06:51;20.00;96.80
32334;DHT22;18810;53.040;8.850;2022-09-29T12:12:10;20.20;97.80
32334;DHT22;18810;53.040;8.850;2022-09-29T12:15:14;21.60;96.00
32334;DHT22;18810;53.040;8.850;2022-09-29T12:17:45;22.50;93.90
32334;DHT22;18810;53.040;8.850;2022-09-29T12:20:28;22.30;93.50
32334;DHT22;18810;53.040;8.850;2022-09-29T12:22:58;21.50;93.80
32334;DHT22;18810;53.040;8.850;2022-09-29T12:25:34;21.30;95.20
32334;DHT22;18810;53.040;8.850;2022-09-29T12:28:06;21.70;94.90
32334;DHT22;18810;53.040;8.850;2022-09-29T12:30:51;22.10;93.20
32334;DHT22;18810;53.040;8.850;2022-09-29T12:33:22;21.60;94.00
32334;DHT22;18810;53.040;8.850;2022-09-29T12:41:50;23.00;92.60
32334;DHT22;18810;53.040;8.850;2022-09-29T12:44:20;23.60;91.50
32334;DHT22;18810;53.040;8.850;2022-09-29T12:47:06;24.40;90.60
32334;DHT22;18810;53.040;8.850;2022-09-29T12:52:51;24.50;87.90
32334;DHT22;18810;53.040;8.850;2022-09-29T12:55:45;23.10;90.70
32334;DHT22;18810;53.040;8.850;2022-09-29T12:58:28;22.20;92.00
32334;DHT22;18810;53.040;8.850;2022-09-29T13:01:02;21.20;93.50
32334;DHT22;18810;53.040;8.850;2022-09-29T13:15:23;21.40;92.60
32334;DHT22;18810;53.040;8.850;2022-09-29T13:23:05;22.20;92.10
32334;DHT22;18810;53.040;8.850;2022-09-29T13:25:59;22.10;91.70
32334;DHT22;18810;53.040;8.850;2022-09-29T13:28:32;21.90;92.00
32334;DHT22;18810;53.040;8.850;2022-09-29T13:31:02;21.70;91.90
32334;DHT22;18810;53.040;8.850;2022-09-29T13:33:28;21.50;93.10
32334;DHT22;18810;53.040;8.850;2022-09-29T13:35:54;21.40;92.90
32334;DHT22;18810;53.040;8.850;2022-09-29T13:38:26;21.50;93.10
32334;DHT22;18810;53.040;8.850;2022-09-29T13:49:12;20.60;93.80
32334;DHT22;18810;53.040;8.850;2022-09-29T13:51:48;20.50;94.30
32334;DHT22;18810;53.040;8.850;2022-09-29T13:54:27;20.50;95.00
32334;DHT22;18810;53.040;8.850;2022-09-29T13:59:43;20.40;95.10
32334;DHT22;18810;53.040;8.850;2022-09-29T14:02:29;20.20;94.60
32334;DHT22;18810;53.040;8.850;2022-09-29T14:04:56;19.80;95.20
32334;DHT22;18810;53.040;8.850;2022-09-29T14:07:46;19.90;95.40
32334;DHT22;18810;53.040;8.850;2022-09-29T14:10:24;19.90;95.70
32334;DHT22;18810;53.040;8.850;2022-09-29T14:13:01;20.10;95.80
32334;DHT22;18810;53.040;8.850;2022-09-29T14:15:31;20.20;95.40
32334;DHT22;18810;53.040;8.850;2022-09-29T14:18:03;20.00;95.00
32334;DHT22;18810;53.040;8.850;2022-09-29T14:20:32;19.80;95.60
32334;DHT22;18810;53.040;8.850;2022-09-29T14:23:07;19.80;94.90
32334;DHT22;18810;53.040;8.850;2022-09-29T14:28:26;19.50;95.30
32334;DHT22;18810;53.040;8.850;2022-09-29T14:30:56;19.60;95.40
32334;DHT22;18810;53.040;8.850;2022-09-29T14:33:33;19.80;95.40
32334;DHT22;18810;53.040;8.850;2022-09-29T14:36:02;19.90;95.00
32334;DHT22;18810;53.040;8.850;2022-09-29T14:38:36;19.70;94.90
32334;DHT22;18810;53.040;8.850;2022-09-29T14:43:43;19.60;94.40
32334;DHT22;18810;53.040;8.850;2022-09-29T14:55:20;19.50;95.20
32334;DHT22;18810;53.040;8.850;2022-09-29T15:00:23;19.50;95.40
32334;DHT22;18810;53.040;8.850;2022-09-29T15:02:54;19.40;95.50
32334;DHT22;18810;53.040;8.850;2022-09-29T15:05:30;19.30;95.80
32334;DHT22;18810;53.040;8.850;2022-09-29T15:07:58;19.10;96.00
32334;DHT22;18810;53.040;8.850;2022-09-29T15:10:27;19.00;96.40
32334;DHT22;18810;53.040;8.850;2022-09-29T15:15:46;18.80;96.60
32334;DHT22;18810;53.040;8.850;2022-09-29T15:24:13;17.40;99.90
32334;DHT22;18810;53.040;8.850;2022-09-29T15:26:42;17.30;99.90
32334;DHT22;18810;53.040;8.850;2022-09-29T15:29:13;16.60;99.90
32334;DHT22;18810;53.040;8.850;2022-09-29T15:31:43;16.80;99.90
32334;DHT22;18810;53.040;8.850;2022-09-29T15:34:17;16.70;99.90
32334;DHT22;18810;53.040;8.850;2022-09-29T15:36:47;16.90;99.90
32334;DHT22;18810;53.040;8.850;2022-09-29T15:42:09;17.00;99.90
32334;DHT22;18810;53.040;8.850;2022-09-29T15:44:36;17.00;99.90
32334;DHT22;18810;53.040;8.850;2022-09-29T15:47:02;17.00;99.90
32334;DHT22;18810;53.040;8.850;2022-09-29T15:49:28;16.90;99.90
32334;DHT22;18810;53.040;8.850;2022-09-29T15:52:03;16.90;99.90
32334;DHT22;18810;53.040;8.850;2022-09-29T15:54:34;16.80;99.90
32334;DHT22;18810;53.040;8.850;2022-09-29T15:57:04;16.80;99.90
32334;DHT22;18810;53.040;8.850;2022-09-29T15:59:51;16.80;99.90
32334;DHT22;18810;53.040;8.850;2022-09-29T16:02:35;16.80;99.90
32334;DHT22;18810;53.040;8.850;2022-09-29T16:05:10;16.80;99.90
32334;DHT22;18810;53.040;8.850;2022-09-29T16:07:46;16.70;99.90
32334;DHT22;18810;53.040;8.850;2022-09-29T16:10:15;16.80;99.90
32334;DHT22;18810;53.040;8.850;2022-09-29T16:12:48;16.90;99.90
32334;DHT22;18810;53.040;8.850;2022-09-29T16:15:38;16.70;99.90
32334;DHT22;18810;53.040;8.850;2022-09-29T16:18:18;16.70;99.90
32334;DHT22;18810;53.040;8.850;2022-09-29T16:20:45;16.60;99.90
32334;DHT22;18810;53.040;8.850;2022-09-29T16:23:25;16.50;99.90
32334;DHT22;18810;53.040;8.850;2022-09-29T16:28:35;16.50;99.90
32334;DHT22;18810;53.040;8.850;2022-09-29T16:31:04;16.50;99.90
32334;DHT22;18810;53.040;8.850;2022-09-29T16:33:33;16.40;99.90
32334;DHT22;18810;53.040;8.850;2022-09-29T16:36:09;16.30;99.90
32334;DHT22;18810;53.040;8.850;2022-09-29T16:38:43;16.30;99.90
32334;DHT22;18810;53.040;8.850;2022-09-29T16:43:43;16.40;99.90
32334;DHT22;18810;53.040;8.850;2022-09-29T16:46:16;16.30;99.90
32334;DHT22;18810;53.040;8.850;2022-09-29T16:48:43;16.20;99.90
32334;DHT22;18810;53.040;8.850;2022-09-29T16:51:19;16.00;99.90
32334;DHT22;18810;53.040;8.850;2022-09-29T16:53:47;16.00;99.90
32334;DHT22;18810;53.040;8.850;2022-09-29T16:56:29;15.90;99.90
32334;DHT22;18810;53.040;8.850;2022-09-29T16:59:10;15.70;99.90
32334;DHT22;18810;53.040;8.850;2022-09-29T17:01:37;15.50;99.90
32334;DHT22;18810;53.040;8.850;2022-09-29T17:04:03;15.60;99.90
32334;DHT22;18810;53.040;8.850;2022-09-29T17:06:29;15.40;99.90
32334;DHT22;18810;53.040;8.850;2022-09-29T17:08:56;15.40;99.90
32334;DHT22;18810;53.040;8.850;2022-09-29T17:11:22;15.20;99.90
32334;DHT22;18810;53.040;8.850;2022-09-29T17:13:47;15.20;99.90
32334;DHT22;18810;53.040;8.850;2022-09-29T17:16:13;15.20;99.90
32334;DHT22;18810;53.040;8.850;2022-09-29T17:18:49;15.40;99.90
32334;DHT22;18810;53.040;8.850;2022-09-29T17:21:15;15.20;99.90
32334;DHT22;18810;53.040;8.850;2022-09-29T17:23:40;15.20;99.90
32334;DHT22;18810;53.040;8.850;2022-09-29T17:26:20;15.20;99.90
32334;DHT22;18810;53.040;8.850;2022-09-29T17:29:06;15.10;99.90
32334;DHT22;18810;53.040;8.850;2022-09-29T17:31:31;15.00;99.90
32334;DHT22;18810;53.040;8.850;2022-09-29T17:33:57;14.80;99.90
32334;DHT22;18810;53.040;8.850;2022-09-29T17:36:23;14.70;99.90
32334;DHT22;18810;53.040;8.850;2022-09-29T17:38:49;14.60;99.90
32334;DHT22;18810;53.040;8.850;2022-09-29T17:41:16;14.50;99.90
32334;DHT22;18810;53.040;8.850;2022-09-29T17:43:42;14.30;99.90
32334;DHT22;18810;53.040;8.850;2022-09-29T17:46:13;14.70;99.90
32334;DHT22;18810;53.040;8.850;2022-09-29T17:48:39;14.00;99.90
32334;DHT22;18810;53.040;8.850;2022-09-29T17:51:13;14.10;99.90
32334;DHT22;18810;53.040;8.850;2022-09-29T17:53:39;13.90;99.90
32334;DHT22;18810;53.040;8.850;2022-09-29T17:56:21;13.90;99.90
32334;DHT22;18810;53.040;8.850;2022-09-29T17:58:51;14.00;99.90
32334;DHT22;18810;53.040;8.850;2022-09-29T18:01:21;15.20;99.90
32334;DHT22;18810;53.040;8.850;2022-09-29T18:03:47;14.80;99.90
32334;DHT22;18810;53.040;8.850;2022-09-29T18:06:19;14.10;99.90
32334;DHT22;18810;53.040;8.850;2022-09-29T18:08:50;14.20;99.90
32334;DHT22;18810;53.040;8.850;2022-09-29T18:11:17;15.50;99.90
32334;DHT22;18810;53.040;8.850;2022-09-29T18:13:43;14.10;99.90
32334;DHT22;18810;53.040;8.850;2022-09-29T18:16:14;14.10;99.90
32334;DHT22;18810;53.040;8.850;2022-09-29T18:18:40;14.00;99.90
32334;DHT22;18810;53.040;8.850;2022-09-29T18:21:06;14.00;99.90
32334;DHT22;18810;53.040;8.850;2022-09-29T18:23:32;13.90;99.90
32334;DHT22;18810;53.040;8.850;2022-09-29T18:25:59;15.10;99.90
32334;DHT22;18810;53.040;8.850;2022-09-29T18:28:25;14.00;99.90
32334;DHT22;18810;53.040;8.850;2022-09-29T18:31:00;14.10;99.90
32334;DHT22;18810;53.040;8.850;2022-09-29T18:33:26;14.20;99.90
32334;DHT22;18810;53.040;8.850;2022-09-29T18:35:53;15.00;99.90
32334;DHT22;18810;53.040;8.850;2022-09-29T18:38:20;14.10;99.90
32334;DHT22;18810;53.040;8.850;2022-09-29T18:40:45;14.20;99.90
32334;DHT22;18810;53.040;8.850;2022-09-29T18:43:12;13.90;99.90
32334;DHT22;18810;53.040;8.850;2022-09-29T18:45:39;13.90;99.90
32334;DHT22;18810;53.040;8.850;2022-09-29T18:48:10;13.90;99.90
32334;DHT22;18810;53.040;8.850;2022-09-29T18:50:39;13.80;99.90
32334;DHT22;18810;53.040;8.850;2022-09-29T18:53:11;13.80;99.90
32334;DHT22;18810;53.040;8.850;2022-09-29T18:55:37;13.80;99.90
32334;DHT22;18810;53.040;8.850;2022-09-29T18:58:03;13.80;99.90
32334;DHT22;18810;53.040;8.850;2022-09-29T19:00:31;13.90;99.90
32334;DHT22;18810;53.040;8.850;2022-09-29T19:02:57;15.00;99.90
32334;DHT22;18810;53.040;8.850;2022-09-29T19:05:28;14.00;99.90
32334;DHT22;18810;53.040;8.850;2022-09-29T19:07:58;14.00;99.90
32334;DHT22;18810;53.040;8.850;2022-09-29T19:10:24;14.00;99.90
32334;DHT22;18810;53.040;8.850;2022-09-29T19:12:51;14.40;99.90
32334;DHT22;18810;53.040;8.850;2022-09-29T19:15:18;15.10;99.90
32334;DHT22;18810;53.040;8.850;2022-09-29T19:17:45;13.90;99.90
32334;DHT22;18810;53.040;8.850;2022-09-29T19:20:13;14.30;99.90
32334;DHT22;18810;53.040;8.850;2022-09-29T19:22:40;13.90;99.90
32334;DHT22;18810;53.040;8.850;2022-09-29T19:25:23;14.00;99.90
32334;DHT22;18810;53.040;8.850;2022-09-29T19:27:51;14.00;99.90
32334;DHT22;18810;53.040;8.850;2022-09-29T19:30:19;13.90;99.90
32334;DHT22;18810;53.040;8.850;2022-09-29T19:32:46;13.90;99.90
32334;DHT22;18810;53.040;8.850;2022-09-29T19:35:16;13.90;99.90
32334;DHT22;18810;53.040;8.850;2022-09-29T19:37:42;13.90;99.90
32334;DHT22;18810;53.040;8.850;2022-09-29T19:40:10;14.30;99.90
32334;DHT22;18810;53.040;8.850;2022-09-29T19:42:36;13.80;99.90
32334;DHT22;18810;53.040;8.850;2022-09-29T19:45:05;13.80;99.90
32334;DHT22;18810;53.040;8.850;2022-09-29T19:47:32;13.70;99.90
32334;DHT22;18810;53.040;8.850;2022-09-29T19:49:58;13.60;99.90
32334;DHT22;18810;53.040;8.850;2022-09-29T19:52:42;13.50;99.90
32334;DHT22;18810;53.040;8.850;2022-09-29T19:55:08;13.40;99.90
32334;DHT22;18810;53.040;8.850;2022-09-29T19:57:37;13.40;99.90
32334;DHT22;18810;53.040;8.850;2022-09-29T20:00:09;13.40;99.90
32334;DHT22;18810;53.040;8.850;2022-09-29T20:02:35;13.30;99.90
32334;DHT22;18810;53.040;8.850;2022-09-29T20:05:02;13.30;99.90
32334;DHT22;18810;53.040;8.850;2022-09-29T20:07:28;13.60;99.90
32334;DHT22;18810;53.040;8.850;2022-09-29T20:09:54;13.40;99.90
32334;DHT22;18810;53.040;8.850;2022-09-29T20:12:20;14.60;99.90
32334;DHT22;18810;53.040;8.850;2022-09-29T20:17:11;13.30;99.90
32334;DHT22;18810;53.040;8.850;2022-09-29T20:22:04;13.40;99.90
32334;DHT22;18810;53.040;8.850;2022-09-29T20:24:31;13.50;99.90
32334;DHT22;18810;53.040;8.850;2022-09-29T20:26:56;13.20;99.90
32334;DHT22;18810;53.040;8.850;2022-09-29T20:31:49;12.90;99.90
32334;DHT22;18810;53.040;8.850;2022-09-29T20:36:43;12.60;99.90
32334;DHT22;18810;53.040;8.850;2022-09-29T20:39:10;14.10;99.90
32334;DHT22;18810;53.040;8.850;2022-09-29T20:41:36;12.50;99.90
32334;DHT22;18810;53.040;8.850;2022-09-29T20:44:02;13.50;99.90
32334;DHT22;18810;53.040;8.850;2022-09-29T20:48:56;12.50;99.90
32334;DHT22;18810;53.040;8.850;2022-09-29T20:51:23;12.40;99.90
32334;DHT22;18810;53.040;8.850;2022-09-29T20:53:51;12.30;99.90
32334;DHT22;18810;53.040;8.850;2022-09-29T20:58:47;12.30;99.90
32334;DHT22;18810;53.040;8.850;2022-09-29T21:11:04;12.00;99.90